New Dawn — WDB9910 — position and weather

sailwx.info

Track history (hours):
 
Tides and Currents Weather Stations Pressure Air Temp Water Temp Dewpoint Dewpoint Depression Visibility Wind Speed Wind Dir Waves Ship Positions

New Dawn

Owner: American River Transportation Company, St Louis, MO. More information available from US FCC via Universal Licensing System and Coast Guard Vessel Documentation Center.

Last reported at 2017-Jun-14 21:57 UTC. Time now 2017-Jun-23 03:33 UTC.
Position N 41°10' W 091°01'.
Warning: this ship's position is 8 days out of date.

Type: Towing. MMSI: 366984950.

Date/timePositionNaut miles runAvg speedWind from/ knotsBaromVisibWave heightAir tempDewpointWater temp
2017-Jun-14 21:57N 41°10' W 091°01'2 3.8
2017-Jun-14 21:26N 41°09' W 090°59'2 5.5
2017-Jun-14 20:59N 41°07' W 090°57'3 5.3
2017-Jun-14 20:29N 41°04' W 090°57'3 5.6
2017-Jun-14 20:00N 41°01' W 090°57'3 5.5
2017-Jun-14 19:31N 40°59' W 090°57'3 5.6
2017-Jun-14 19:01N 40°56' W 090°58'2 4.7
2017-Jun-14 18:30N 40°54' W 091°00'2 3.5
2017-Jun-14 18:01N 40°53' W 091°01'0 0.3
2017-Jun-14 17:30N 40°53' W 091°02'0 0.0
2017-Jun-14 17:00N 40°53' W 091°02'1 2.6
2017-Jun-14 16:30N 40°52' W 091°03'0 0.0
2017-Jun-14 16:00N 40°52' W 091°03'0 0.0
2017-Jun-14 15:30N 40°52' W 091°03'1 2.5
2017-Jun-14 15:00N 40°51' W 091°03'3 3.4
2017-Jun-14 14:01N 40°48' W 091°06'  
Track history (hours):
 
Tides and Currents Weather Stations Pressure Air Temp Water Temp Dewpoint Dewpoint Depression Visibility Wind Speed Wind Dir Waves Ship Positions

New Dawn

Owner: American River Transportation Company, St Louis, MO. More information available from US FCC via Universal Licensing System and Coast Guard Vessel Documentation Center.

Last reported at 2017-Jun-14 21:57 UTC. Time now 2017-Jun-23 03:33 UTC.
Position N 41°10' W 091°01'.
Warning: this ship's position is 8 days out of date.

Type: Towing. MMSI: 366984950.

Date/timePositionNaut miles runAvg speedWind from/ knotsBaromVisibWave heightAir tempDewpointWater temp
2017-Jun-14 21:57N 41°10' W 091°01'2 3.8
2017-Jun-14 21:26N 41°09' W 090°59'2 5.5
2017-Jun-14 20:59N 41°07' W 090°57'3 5.3
2017-Jun-14 20:29N 41°04' W 090°57'3 5.6
2017-Jun-14 20:00N 41°01' W 090°57'3 5.5
2017-Jun-14 19:31N 40°59' W 090°57'3 5.6
2017-Jun-14 19:01N 40°56' W 090°58'2 4.7
2017-Jun-14 18:30N 40°54' W 091°00'2 3.5
2017-Jun-14 18:01N 40°53' W 091°01'0 0.3
2017-Jun-14 17:30N 40°53' W 091°02'0 0.0
2017-Jun-14 17:00N 40°53' W 091°02'1 2.6
2017-Jun-14 16:30N 40°52' W 091°03'0 0.0
2017-Jun-14 16:00N 40°52' W 091°03'0 0.0
2017-Jun-14 15:30N 40°52' W 091°03'1 2.5
2017-Jun-14 15:00N 40°51' W 091°03'3 3.4
2017-Jun-14 14:01N 40°48' W 091°06'  

Dump ship's entire track history